Flight Briefing for CPX31

Departure Arrival
Tokyo-Narita International Airport (RJAA)
Click to view FAA NOTAMS
Ted Stevens Anchorage International Airport (PANC)
Click to view FAA NOTAMS
Departure Time Arrival Time
N/A N/A
Aircraft Distance
B767-300BDSF 2981nm
Departure METAR Arrival METAR
RJAA 152100Z VRB01KT 9999 FEW015 BKN160 01/M01 Q1010 NOSIG PANC 152053Z 00000KT 10SM FEW002 M11/M17 A3004 RMK AO2 SLP177 FG BNK DSNT NE T11111172 51003
Suggested Route
CUPID Y808 ALLEN Y812 SCORE R591 EHM R591 HAMND NEELL6


View recent IFR Routes data
Notes



Charts and Procedures

Charts for RJAA
No chart available
Charts for PANC
No chart available

Ventusky Weather